Ana Sayfa
METAR-TAF:

METAR-TAF

Havaalanları :

Matagami, Quebec, Kanada

Enlem: 49-46N, Boylam: 077-49W, yükseklik: 281 m

Güncel hava durumu gözlemi

Rapor saat 04:00 UTC de 23 dakika önce yapıldı.
Rüzgar güneydan 7 kt
Sıcaklık -4°C
Nem 93%
Basınç 1012 hPa
Görüş mesafesi: 14.5 km
1900 ft yükseklikte çok bulutlu

METAR: CYNM 220400Z AUTO 19007KT 9SM OVC019 M04/M05 A2988 RMK SLP142

Saat: 23:23 (04:23 UTC)


TAF: eksik

4.000'den fazla havaalanı için hava durumu gözlemleri ve tahminleri (METAR ve TAF raporları).

Kullanılabilir istasyonlar harita üzerinde sarı ve kırmızı noktalarla gösterilir.

İstasyonun adını görmek için fareyi noktanın üzerinde gezdirin.

Sonrasında hava gözlem ve tahminlerini görmek için tıklayın.

Haritayı değiştirmek için: yaklaştırmak için siyah artı işaretli yeşil düğmeye ve uzaklaştırmak için de eksi işaretli düğmeye hızla tıklayın; bitişik haritalar için yeşil okları kullanın.


METAR-TAF: